Estación Meteorológica Peña el Pijo (Robertgarden) [ 02/02/23 21:29:46 CET ]

Fecha Hora Presion(HPa) Temp (°C) Humedad % Rocio (°C) Viento ( m/s) Direccion Lluvia 1Hora(mm) Lluvia 24H(mm) LLuvia Total(mm)
2012-Apr-07 01:01:12 1003.800 4.3 72 -0.3         155.40
2012-Apr-07 02:01:14 1003.400 3.5 73 -0.9         155.40
2012-Apr-07 03:03:19 1003.200 3.8 74 -0.4         155.40
2012-Apr-07 04:01:13 1003.000 3.3 73 -1.1         155.40
2012-Apr-07 05:01:11 1003.000 2.3 75 -1.7         155.40
2012-Apr-07 06:01:12 1002.500 1.1 79 -2.2         155.40
2012-Apr-07 07:01:17 1002.400 1.3 82 -1.5         155.40
2012-Apr-07 08:01:16 1002.700 2.1 80 -1.0         155.40
2012-Apr-07 09:01:13 1003.000 4.9 72 0.3 2.0 S     155.40
2012-Apr-07 10:01:13 1003.600 7.8 56 -0.5 2.5 SE     155.40
2012-Apr-07 11:01:14 1004.100 9.3 53 0.2 1.6 E     155.40
2012-Apr-07 12:01:17 1004.600 11.4 45 -0.2 1.8 SE     155.40
2012-Apr-07 13:01:12 1004.500 10.5 44 -1.3 1.1 SE     155.40
2012-Apr-07 14:01:12 1004.500 10.6 47 -0.3 3.5 S     155.40
2012-Apr-07 15:01:13 1004.600 12.8 40 -0.5 1.6 ESE     155.40
2012-Apr-07 16:01:16 1004.100 12.4 36 -2.4 3.4 E     155.40
2012-Apr-07 17:01:17 1003.900 11.6 36 -3.1 1.9 E     155.40
2012-Apr-07 18:01:18 1003.700 12.3 36 -2.5 0.7 SSE     155.40
2012-Apr-07 19:01:14 1004.100 9.6 43 -2.5 1.9 ESE     155.40
2012-Apr-07 20:01:16 1004.500 8.9 47 -1.9         155.40
2012-Apr-07 21:01:15 1005.100 8.2 51 -1.4         155.40
2012-Apr-07 22:01:17 1005.800 7.2 55 -1.3         155.40
2012-Apr-07 23:01:14 1006.500 7.2 57 -0.8         155.40

Temperatura Máxima:12°    Temperatura Mínima:
Presión Máxima:1006.500 Hpa    Presión Mínima:1002.400 Hpa


Volver